Rechercher aéroport 
image banner adimage banner adimage banner ad
image banner ad

67CA - Chapman Farms

Situé à Chowchilla, United States

ICAO - 67CA, IATA -

Données fournies par Airmate  

Information générale

Coordonnées: N37°4'22" W120°22'42"
Élévation : 175 feet MSL.
Variation magnétique : 15° East
Voir autres Aéroports à California

Données opérationnelles

Special qualification required
Heure actuelle UTC:
Heure actuelle locale:
Météo à : KMAE - Madera Muni ( 25 km )
METAR: KMAE 251353Z AUTO 00000KT 10SM CLR 21/11 A2989 RMK AO2 SLP119 T02060111
Voir NOTAMs / SUP AIP / TFR affectant cet aéroport [VIEW]
Fréquences de communication: [VIEW]

Pistes:

Identifiant RWYQFULongueur (ft)Largeur (ft)SurfaceLDA (ft)
09300020ASPH
27300020ASPH

Coordonnées de l'aéroport

Adresse: Chowchilla United States

Vue satellite de 67CA